sensor_id;sensor_type;location;lat;lon;timestamp;pressure;altitude;pressure_sealevel;temperature;humidity
51530;BME280;37613;51.788;21.582;2022-11-04T00:02:50;100020.47;;;5.61;91.89
51530;BME280;37613;51.788;21.582;2022-11-04T00:06:53;100015.70;;;5.62;91.85
51530;BME280;37613;51.788;21.582;2022-11-04T00:10:56;100013.77;;;5.63;92.06
51530;BME280;37613;51.788;21.582;2022-11-04T00:15:17;100007.61;;;5.66;92.00
51530;BME280;37613;51.788;21.582;2022-11-04T00:19:42;99999.78;;;5.67;91.96
51530;BME280;37613;51.788;21.582;2022-11-04T00:24:03;99994.70;;;5.68;91.99
51530;BME280;37613;51.788;21.582;2022-11-04T00:28:24;99990.95;;;5.68;91.96
51530;BME280;37613;51.788;21.582;2022-11-04T00:32:44;99993.12;;;5.68;91.93
51530;BME280;37613;51.788;21.582;2022-11-04T00:37:05;99993.80;;;5.66;91.96
51530;BME280;37613;51.788;21.582;2022-11-04T00:41:07;99986.67;;;5.61;91.84
51530;BME280;37613;51.788;21.582;2022-11-04T00:45:27;99973.67;;;5.58;91.86
51530;BME280;37613;51.788;21.582;2022-11-04T00:49:29;99964.33;;;5.56;92.03
51530;BME280;37613;51.788;21.582;2022-11-04T00:53:31;99960.00;;;5.55;92.01
51530;BME280;37613;51.788;21.582;2022-11-04T00:57:33;99951.29;;;5.54;92.08
51530;BME280;37613;51.788;21.582;2022-11-04T01:12:08;99930.03;;;5.50;92.47
51530;BME280;37613;51.788;21.582;2022-11-04T01:16:10;99921.23;;;5.48;92.51
51530;BME280;37613;51.788;21.582;2022-11-04T01:20:13;99915.19;;;5.48;92.50
51530;BME280;37613;51.788;21.582;2022-11-04T01:24:15;99913.06;;;5.47;92.36
51530;BME280;37613;51.788;21.582;2022-11-04T01:28:17;99900.88;;;5.45;92.54
51530;BME280;37613;51.788;21.582;2022-11-04T01:32:19;99893.08;;;5.43;92.35
51530;BME280;37613;51.788;21.582;2022-11-04T01:36:22;99889.21;;;5.41;92.39
51530;BME280;37613;51.788;21.582;2022-11-04T01:40:24;99883.31;;;5.40;92.58
51530;BME280;37613;51.788;21.582;2022-11-04T01:44:47;99875.47;;;5.39;92.51
51530;BME280;37613;51.788;21.582;2022-11-04T01:48:51;99872.95;;;5.38;92.57
51530;BME280;37613;51.788;21.582;2022-11-04T01:53:11;99866.95;;;5.36;92.73
51530;BME280;37613;51.788;21.582;2022-11-04T01:57:24;99861.91;;;5.35;92.53
51530;BME280;37613;51.788;21.582;2022-11-04T02:01:26;99855.62;;;5.32;92.88
51530;BME280;37613;51.788;21.582;2022-11-04T02:05:29;99855.94;;;5.33;92.98
51530;BME280;37613;51.788;21.582;2022-11-04T02:09:33;99850.92;;;5.33;92.83
51530;BME280;37613;51.788;21.582;2022-11-04T02:13:35;99847.41;;;5.35;92.89
51530;BME280;37613;51.788;21.582;2022-11-04T02:18:04;99839.48;;;5.38;92.92
51530;BME280;37613;51.788;21.582;2022-11-04T02:40:19;99820.19;;;5.59;92.98
51530;BME280;37613;51.788;21.582;2022-11-04T02:44:31;99812.50;;;5.66;92.95
51530;BME280;37613;51.788;21.582;2022-11-04T02:48:47;99809.05;;;5.71;92.89
51530;BME280;37613;51.788;21.582;2022-11-04T02:57:08;99802.87;;;5.78;92.76
51530;BME280;37613;51.788;21.582;2022-11-04T03:01:16;99801.55;;;5.81;92.78
51530;BME280;37613;51.788;21.582;2022-11-04T03:05:22;99803.73;;;5.85;92.80
51530;BME280;37613;51.788;21.582;2022-11-04T03:14:50;99800.07;;;5.91;92.54
51530;BME280;37613;51.788;21.582;2022-11-04T03:19:04;99797.37;;;5.94;92.73
51530;BME280;37613;51.788;21.582;2022-11-04T03:23:10;99786.33;;;5.97;92.42
51530;BME280;37613;51.788;21.582;2022-11-04T03:27:48;99781.13;;;6.01;92.38
51530;BME280;37613;51.788;21.582;2022-11-04T03:32:12;99777.30;;;6.03;92.09
51530;BME280;37613;51.788;21.582;2022-11-04T03:36:20;99775.15;;;6.07;92.19
51530;BME280;37613;51.788;21.582;2022-11-04T03:40:24;99776.36;;;6.09;92.18
51530;BME280;37613;51.788;21.582;2022-11-04T03:44:28;99775.67;;;6.12;92.08
51530;BME280;37613;51.788;21.582;2022-11-04T03:48:31;99772.96;;;6.14;91.82
51530;BME280;37613;51.788;21.582;2022-11-04T03:52:33;99770.80;;;6.17;91.96
51530;BME280;37613;51.788;21.582;2022-11-04T04:05:47;99759.40;;;6.23;91.56
51530;BME280;37613;51.788;21.582;2022-11-04T04:10:04;99756.97;;;6.23;91.41
51530;BME280;37613;51.788;21.582;2022-11-04T04:14:47;99759.88;;;6.23;91.33
51530;BME280;37613;51.788;21.582;2022-11-04T04:24:08;99753.23;;;6.19;91.20
51530;BME280;37613;51.788;21.582;2022-11-04T04:28:31;99748.75;;;6.18;90.96
51530;BME280;37613;51.788;21.582;2022-11-04T04:33:00;99751.17;;;6.17;91.16
51530;BME280;37613;51.788;21.582;2022-11-04T04:37:17;99747.72;;;6.17;91.03
51530;BME280;37613;51.788;21.582;2022-11-04T04:41:26;99745.67;;;6.17;90.99
51530;BME280;37613;51.788;21.582;2022-11-04T04:45:50;99740.73;;;6.18;90.85
51530;BME280;37613;51.788;21.582;2022-11-04T04:49:54;99737.45;;;6.19;90.91
51530;BME280;37613;51.788;21.582;2022-11-04T04:53:56;99735.73;;;6.18;90.90
51530;BME280;37613;51.788;21.582;2022-11-04T04:57:58;99734.77;;;6.17;90.78
51530;BME280;37613;51.788;21.582;2022-11-04T05:02:00;99738.53;;;6.17;90.92
51530;BME280;37613;51.788;21.582;2022-11-04T05:06:02;99740.58;;;6.17;90.84
51530;BME280;37613;51.788;21.582;2022-11-04T05:10:06;99740.58;;;6.17;90.62
51530;BME280;37613;51.788;21.582;2022-11-04T05:14:08;99738.77;;;6.17;90.59
51530;BME280;37613;51.788;21.582;2022-11-04T05:18:10;99737.36;;;6.17;90.66
51530;BME280;37613;51.788;21.582;2022-11-04T05:22:12;99728.02;;;6.18;90.53
51530;BME280;37613;51.788;21.582;2022-11-04T05:26:14;99727.01;;;6.18;90.57
51530;BME280;37613;51.788;21.582;2022-11-04T05:30:16;99727.48;;;6.19;90.48
51530;BME280;37613;51.788;21.582;2022-11-04T05:34:18;99730.00;;;6.19;90.39
51530;BME280;37613;51.788;21.582;2022-11-04T05:38:20;99736.35;;;6.18;90.37
51530;BME280;37613;51.788;21.582;2022-11-04T05:42:22;99734.38;;;6.17;90.43
51530;BME280;37613;51.788;21.582;2022-11-04T05:46:25;99730.61;;;6.17;90.34
51530;BME280;37613;51.788;21.582;2022-11-04T05:50:29;99723.00;;;6.17;90.39
51530;BME280;37613;51.788;21.582;2022-11-04T05:54:36;99726.53;;;6.17;90.40
51530;BME280;37613;51.788;21.582;2022-11-04T05:58:40;99728.56;;;6.16;90.41
51530;BME280;37613;51.788;21.582;2022-11-04T06:02:41;99730.86;;;6.17;90.46
51530;BME280;37613;51.788;21.582;2022-11-04T06:06:44;99725.86;;;6.21;90.57
51530;BME280;37613;51.788;21.582;2022-11-04T06:10:46;99721.75;;;6.25;90.38
51530;BME280;37613;51.788;21.582;2022-11-04T06:14:49;99718.55;;;6.29;90.26
51530;BME280;37613;51.788;21.582;2022-11-04T06:18:51;99713.49;;;6.32;90.09
51530;BME280;37613;51.788;21.582;2022-11-04T06:22:53;99707.73;;;6.38;90.10
51530;BME280;37613;51.788;21.582;2022-11-04T06:26:56;99703.32;;;6.45;90.23
51530;BME280;37613;51.788;21.582;2022-11-04T06:30:59;99700.94;;;6.52;90.16
51530;BME280;37613;51.788;21.582;2022-11-04T06:35:01;99702.02;;;6.59;90.26
51530;BME280;37613;51.788;21.582;2022-11-04T06:39:03;99706.53;;;6.63;89.86
51530;BME280;37613;51.788;21.582;2022-11-04T06:43:06;99698.92;;;6.67;89.45
51530;BME280;37613;51.788;21.582;2022-11-04T06:47:09;99693.01;;;6.71;89.02
51530;BME280;37613;51.788;21.582;2022-11-04T06:51:12;99687.92;;;6.76;89.26
51530;BME280;37613;51.788;21.582;2022-11-04T06:55:14;99683.64;;;6.81;89.42
51530;BME280;37613;51.788;21.582;2022-11-04T06:59:18;99681.88;;;6.86;89.36
51530;BME280;37613;51.788;21.582;2022-11-04T07:03:20;99667.89;;;6.87;89.28
51530;BME280;37613;51.788;21.582;2022-11-04T07:07:22;99671.33;;;6.96;88.87
51530;BME280;37613;51.788;21.582;2022-11-04T07:11:25;99665.70;;;7.04;88.93
51530;BME280;37613;51.788;21.582;2022-11-04T07:15:28;99660.41;;;7.11;88.85
51530;BME280;37613;51.788;21.582;2022-11-04T07:19:30;99657.38;;;7.16;88.40
51530;BME280;37613;51.788;21.582;2022-11-04T07:23:32;99656.98;;;7.19;87.96
51530;BME280;37613;51.788;21.582;2022-11-04T07:27:34;99655.42;;;7.22;87.80
51530;BME280;37613;51.788;21.582;2022-11-04T07:31:37;99650.27;;;7.26;87.48
51530;BME280;37613;51.788;21.582;2022-11-04T07:35:39;99648.71;;;7.31;87.53
51530;BME280;37613;51.788;21.582;2022-11-04T07:39:41;99652.82;;;7.36;87.80
51530;BME280;37613;51.788;21.582;2022-11-04T07:43:47;99650.30;;;7.38;87.60
51530;BME280;37613;51.788;21.582;2022-11-04T07:47:50;99645.23;;;7.41;87.29
51530;BME280;37613;51.788;21.582;2022-11-04T07:51:52;99640.19;;;7.44;87.11
51530;BME280;37613;51.788;21.582;2022-11-04T07:55:54;99638.55;;;7.47;87.16
51530;BME280;37613;51.788;21.582;2022-11-04T07:59:57;99641.09;;;7.51;87.10
51530;BME280;37613;51.788;21.582;2022-11-04T08:03:59;99634.48;;;7.56;86.98
51530;BME280;37613;51.788;21.582;2022-11-04T08:08:01;99630.02;;;7.62;86.85
51530;BME280;37613;51.788;21.582;2022-11-04T08:12:04;99626.51;;;7.69;86.95
51530;BME280;37613;51.788;21.582;2022-11-04T08:16:10;99630.77;;;7.77;86.56
51530;BME280;37613;51.788;21.582;2022-11-04T08:20:13;99627.32;;;7.85;86.59
51530;BME280;37613;51.788;21.582;2022-11-04T08:24:15;99632.14;;;7.93;86.69
51530;BME280;37613;51.788;21.582;2022-11-04T08:28:18;99632.63;;;8.02;86.42
51530;BME280;37613;51.788;21.582;2022-11-04T08:32:20;99625.23;;;8.11;85.92
51530;BME280;37613;51.788;21.582;2022-11-04T08:40:26;99609.56;;;8.27;84.99
51530;BME280;37613;51.788;21.582;2022-11-04T08:44:28;99609.95;;;8.30;84.16
51530;BME280;37613;51.788;21.582;2022-11-04T08:48:29;99602.18;;;8.36;84.30
51530;BME280;37613;51.788;21.582;2022-11-04T08:52:32;99600.69;;;8.42;83.87
51530;BME280;37613;51.788;21.582;2022-11-04T08:56:36;99602.89;;;8.48;84.03
51530;BME280;37613;51.788;21.582;2022-11-04T09:00:39;99595.00;;;8.58;83.89
51530;BME280;37613;51.788;21.582;2022-11-04T09:04:41;99591.13;;;8.64;83.50
51530;BME280;37613;51.788;21.582;2022-11-04T09:08:43;99586.94;;;8.68;83.46
51530;BME280;37613;51.788;21.582;2022-11-04T09:12:46;99586.85;;;8.75;83.75
51530;BME280;37613;51.788;21.582;2022-11-04T09:16:48;99583.77;;;8.81;83.31
51530;BME280;37613;51.788;21.582;2022-11-04T09:20:50;99584.14;;;8.84;83.06
51530;BME280;37613;51.788;21.582;2022-11-04T09:24:52;99585.39;;;8.89;83.35
51530;BME280;37613;51.788;21.582;2022-11-04T09:28:56;99585.92;;;8.92;82.72
51530;BME280;37613;51.788;21.582;2022-11-04T09:32:58;99582.13;;;8.96;82.37
51530;BME280;37613;51.788;21.582;2022-11-04T09:37:01;99576.75;;;9.02;82.53
51530;BME280;37613;51.788;21.582;2022-11-04T09:41:45;99562.23;;;9.08;82.17
51530;BME280;37613;51.788;21.582;2022-11-04T09:45:51;99555.48;;;9.15;81.65
51530;BME280;37613;51.788;21.582;2022-11-04T09:49:56;99553.54;;;9.26;81.69
51530;BME280;37613;51.788;21.582;2022-11-04T09:54:02;99546.70;;;9.38;81.97
51530;BME280;37613;51.788;21.582;2022-11-04T09:58:11;99546.48;;;9.49;81.18
51530;BME280;37613;51.788;21.582;2022-11-04T10:11:34;99525.59;;;9.89;80.33
51530;BME280;37613;51.788;21.582;2022-11-04T10:16:06;99523.30;;;10.08;79.89
51530;BME280;37613;51.788;21.582;2022-11-04T10:24:51;99511.60;;;10.72;78.16
51530;BME280;37613;51.788;21.582;2022-11-04T10:29:04;99498.20;;;11.01;77.31
51530;BME280;37613;51.788;21.582;2022-11-04T10:33:40;99500.96;;;11.14;77.31
51530;BME280;37613;51.788;21.582;2022-11-04T10:37:46;99492.41;;;11.37;75.45
51530;BME280;37613;51.788;21.582;2022-11-04T10:41:52;99491.81;;;11.57;75.21
51530;BME280;37613;51.788;21.582;2022-11-04T10:46:15;99487.41;;;11.75;75.05
51530;BME280;37613;51.788;21.582;2022-11-04T10:50:35;99479.70;;;11.87;73.68
51530;BME280;37613;51.788;21.582;2022-11-04T10:54:46;99468.16;;;11.91;73.50
51530;BME280;37613;51.788;21.582;2022-11-04T10:58:48;99467.50;;;11.97;73.61
51530;BME280;37613;51.788;21.582;2022-11-04T11:02:50;99470.41;;;11.98;73.25
51530;BME280;37613;51.788;21.582;2022-11-04T11:06:53;99468.87;;;12.00;71.27
51530;BME280;37613;51.788;21.582;2022-11-04T11:10:56;99468.30;;;12.02;69.41
51530;BME280;37613;51.788;21.582;2022-11-04T11:14:58;99463.51;;;12.09;70.77
51530;BME280;37613;51.788;21.582;2022-11-04T11:19:13;99453.25;;;12.06;70.53
51530;BME280;37613;51.788;21.582;2022-11-04T11:23:38;99450.88;;;12.06;69.39
51530;BME280;37613;51.788;21.582;2022-11-04T11:27:47;99444.64;;;12.01;67.81
51530;BME280;37613;51.788;21.582;2022-11-04T11:31:52;99442.29;;;12.03;70.07
51530;BME280;37613;51.788;21.582;2022-11-04T11:36:15;99440.06;;;12.08;69.44
51530;BME280;37613;51.788;21.582;2022-11-04T11:40:31;99426.75;;;12.08;68.50
51530;BME280;37613;51.788;21.582;2022-11-04T11:44:39;99409.77;;;11.97;67.81
51530;BME280;37613;51.788;21.582;2022-11-04T11:48:51;99412.58;;;12.03;68.97
51530;BME280;37613;51.788;21.582;2022-11-04T11:53:10;99420.30;;;12.10;66.94
51530;BME280;37613;51.788;21.582;2022-11-04T11:58:15;99418.27;;;12.09;67.88
51530;BME280;37613;51.788;21.582;2022-11-04T12:02:40;99418.77;;;12.08;66.67
51530;BME280;37613;51.788;21.582;2022-11-04T12:11:48;99419.29;;;11.92;66.58
51530;BME280;37613;51.788;21.582;2022-11-04T12:16:20;99419.58;;;11.79;66.77
51530;BME280;37613;51.788;21.582;2022-11-04T12:20:49;99418.30;;;11.64;67.05
51530;BME280;37613;51.788;21.582;2022-11-04T12:25:18;99422.82;;;11.50;67.47
51530;BME280;37613;51.788;21.582;2022-11-04T12:33:39;99425.43;;;11.40;68.04
51530;BME280;37613;51.788;21.582;2022-11-04T12:42:26;99410.45;;;11.66;68.67
51530;BME280;37613;51.788;21.582;2022-11-04T12:46:36;99407.30;;;11.75;68.57
51530;BME280;37613;51.788;21.582;2022-11-04T12:51:04;99398.67;;;11.74;68.26
51530;BME280;37613;51.788;21.582;2022-11-04T12:55:51;99394.97;;;11.69;68.56
51530;BME280;37613;51.788;21.582;2022-11-04T13:00:06;99393.01;;;11.63;68.79
51530;BME280;37613;51.788;21.582;2022-11-04T13:04:11;99391.96;;;11.59;68.40
51530;BME280;37613;51.788;21.582;2022-11-04T13:08:45;99389.20;;;11.54;68.30
51530;BME280;37613;51.788;21.582;2022-11-04T13:12:48;99386.77;;;11.53;68.68
51530;BME280;37613;51.788;21.582;2022-11-04T13:16:52;99381.33;;;11.52;68.90
51530;BME280;37613;51.788;21.582;2022-11-04T13:21:02;99385.27;;;11.48;68.53
51530;BME280;37613;51.788;21.582;2022-11-04T13:25:16;99386.73;;;11.40;67.93
51530;BME280;37613;51.788;21.582;2022-11-04T13:29:20;99384.85;;;11.34;68.66
51530;BME280;37613;51.788;21.582;2022-11-04T13:33:37;99383.39;;;11.27;68.32
51530;BME280;37613;51.788;21.582;2022-11-04T13:37:54;99381.80;;;11.17;68.07
51530;BME280;37613;51.788;21.582;2022-11-04T13:46:34;99382.50;;;11.03;68.39
51530;BME280;37613;51.788;21.582;2022-11-04T13:50:38;99391.11;;;10.98;68.90
51530;BME280;37613;51.788;21.582;2022-11-04T13:54:45;99394.29;;;10.92;68.91
51530;BME280;37613;51.788;21.582;2022-11-04T13:58:59;99395.84;;;10.88;69.47
51530;BME280;37613;51.788;21.582;2022-11-04T14:20:29;99397.98;;;10.64;69.62
51530;BME280;37613;51.788;21.582;2022-11-04T14:24:31;99397.02;;;10.59;69.98
51530;BME280;37613;51.788;21.582;2022-11-04T14:28:34;99392.29;;;10.53;69.82
51530;BME280;37613;51.788;21.582;2022-11-04T14:32:40;99393.55;;;10.47;69.89
51530;BME280;37613;51.788;21.582;2022-11-04T14:36:43;99393.92;;;10.41;70.01
51530;BME280;37613;51.788;21.582;2022-11-04T14:40:48;99388.95;;;10.36;70.03
51530;BME280;37613;51.788;21.582;2022-11-04T14:44:51;99391.75;;;10.31;70.26
51530;BME280;37613;51.788;21.582;2022-11-04T14:48:56;99391.44;;;10.24;70.29
51530;BME280;37613;51.788;21.582;2022-11-04T14:53:02;99386.44;;;10.17;70.46
51530;BME280;37613;51.788;21.582;2022-11-04T14:57:13;99385.44;;;10.08;70.81
51530;BME280;37613;51.788;21.582;2022-11-04T15:01:15;99386.48;;;10.00;70.97
51530;BME280;37613;51.788;21.582;2022-11-04T15:05:24;99387.73;;;9.92;71.30
51530;BME280;37613;51.788;21.582;2022-11-04T15:09:30;99388.35;;;9.86;71.50
51530;BME280;37613;51.788;21.582;2022-11-04T15:13:38;99386.50;;;9.83;71.65
51530;BME280;37613;51.788;21.582;2022-11-04T15:17:44;99390.39;;;9.80;72.28
51530;BME280;37613;51.788;21.582;2022-11-04T15:21:46;99392.94;;;9.77;72.56
51530;BME280;37613;51.788;21.582;2022-11-04T15:25:50;99398.91;;;9.79;72.64
51530;BME280;37613;51.788;21.582;2022-11-04T15:29:59;99394.81;;;9.80;72.71
51530;BME280;37613;51.788;21.582;2022-11-04T15:34:04;99390.95;;;9.80;72.81
51530;BME280;37613;51.788;21.582;2022-11-04T15:38:09;99391.18;;;9.78;73.01
51530;BME280;37613;51.788;21.582;2022-11-04T15:42:19;99399.41;;;9.77;73.20
51530;BME280;37613;51.788;21.582;2022-11-04T15:46:38;99400.09;;;9.74;73.43
51530;BME280;37613;51.788;21.582;2022-11-04T15:50:40;99398.05;;;9.72;73.36
51530;BME280;37613;51.788;21.582;2022-11-04T15:54:46;99399.66;;;9.68;73.74
51530;BME280;37613;51.788;21.582;2022-11-04T15:58:49;99402.05;;;9.66;73.72
51530;BME280;37613;51.788;21.582;2022-11-04T16:02:54;99410.04;;;9.63;74.21
51530;BME280;37613;51.788;21.582;2022-11-04T16:11:17;99411.86;;;9.62;74.75
51530;BME280;37613;51.788;21.582;2022-11-04T16:15:38;99412.03;;;9.61;74.83
51530;BME280;37613;51.788;21.582;2022-11-04T16:20:15;99417.01;;;9.60;75.04
51530;BME280;37613;51.788;21.582;2022-11-04T16:24:22;99413.21;;;9.61;75.36
51530;BME280;37613;51.788;21.582;2022-11-04T16:28:32;99410.64;;;9.64;75.69
51530;BME280;37613;51.788;21.582;2022-11-04T16:32:40;99405.20;;;9.64;76.09
51530;BME280;37613;51.788;21.582;2022-11-04T16:36:44;99405.77;;;9.65;75.96
51530;BME280;37613;51.788;21.582;2022-11-04T16:40:47;99410.34;;;9.66;76.23
51530;BME280;37613;51.788;21.582;2022-11-04T16:44:51;99414.77;;;9.66;76.24
51530;BME280;37613;51.788;21.582;2022-11-04T16:49:15;99414.36;;;9.65;76.37
51530;BME280;37613;51.788;21.582;2022-11-04T16:53:21;99415.38;;;9.64;76.79
51530;BME280;37613;51.788;21.582;2022-11-04T16:57:37;99411.72;;;9.60;77.17
51530;BME280;37613;51.788;21.582;2022-11-04T17:01:55;99409.83;;;9.60;77.43
51530;BME280;37613;51.788;21.582;2022-11-04T17:05:58;99413.88;;;9.64;77.57
51530;BME280;37613;51.788;21.582;2022-11-04T17:10:24;99421.07;;;9.64;77.34
51530;BME280;37613;51.788;21.582;2022-11-04T17:14:27;99421.70;;;9.63;77.36
51530;BME280;37613;51.788;21.582;2022-11-04T17:18:30;99415.18;;;9.61;77.90
51530;BME280;37613;51.788;21.582;2022-11-04T17:22:34;99405.91;;;9.58;77.66
51530;BME280;37613;51.788;21.582;2022-11-04T17:26:37;99400.32;;;9.56;77.93
51530;BME280;37613;51.788;21.582;2022-11-04T17:30:41;99401.52;;;9.54;78.44
51530;BME280;37613;51.788;21.582;2022-11-04T17:34:43;99402.45;;;9.55;78.43
51530;BME280;37613;51.788;21.582;2022-11-04T17:38:46;99400.02;;;9.54;79.12
51530;BME280;37613;51.788;21.582;2022-11-04T17:42:49;99397.52;;;9.52;78.96
51530;BME280;37613;51.788;21.582;2022-11-04T17:47:13;99395.85;;;9.52;79.37
51530;BME280;37613;51.788;21.582;2022-11-04T17:51:16;99387.34;;;9.53;79.30
51530;BME280;37613;51.788;21.582;2022-11-04T17:55:18;99382.67;;;9.53;79.16
51530;BME280;37613;51.788;21.582;2022-11-04T17:59:20;99377.48;;;9.52;79.42
51530;BME280;37613;51.788;21.582;2022-11-04T18:03:22;99380.48;;;9.52;79.42
51530;BME280;37613;51.788;21.582;2022-11-04T18:07:24;99364.41;;;9.49;79.61
51530;BME280;37613;51.788;21.582;2022-11-04T18:11:27;99364.52;;;9.53;79.73
51530;BME280;37613;51.788;21.582;2022-11-04T18:15:48;99363.42;;;9.53;79.80
51530;BME280;37613;51.788;21.582;2022-11-04T18:19:51;99350.17;;;9.53;79.50
51530;BME280;37613;51.788;21.582;2022-11-04T18:23:54;99337.70;;;9.53;79.76
51530;BME280;37613;51.788;21.582;2022-11-04T18:27:56;99334.58;;;9.51;79.80
51530;BME280;37613;51.788;21.582;2022-11-04T18:32:01;99340.44;;;9.47;79.81
51530;BME280;37613;51.788;21.582;2022-11-04T18:36:04;99343.88;;;9.42;80.01
51530;BME280;37613;51.788;21.582;2022-11-04T18:40:08;99349.94;;;9.35;80.07
51530;BME280;37613;51.788;21.582;2022-11-04T18:44:15;99348.89;;;9.29;80.10
51530;BME280;37613;51.788;21.582;2022-11-04T18:48:21;99352.16;;;9.24;80.20
51530;BME280;37613;51.788;21.582;2022-11-04T18:52:24;99347.16;;;9.18;80.52
51530;BME280;37613;51.788;21.582;2022-11-04T18:56:26;99351.54;;;9.13;80.84
51530;BME280;37613;51.788;21.582;2022-11-04T19:00:28;99363.63;;;9.09;81.11
51530;BME280;37613;51.788;21.582;2022-11-04T19:04:32;99377.21;;;9.06;81.15
51530;BME280;37613;51.788;21.582;2022-11-04T19:08:34;99375.34;;;9.04;81.23
51530;BME280;37613;51.788;21.582;2022-11-04T19:12:37;99374.17;;;9.02;81.17
51530;BME280;37613;51.788;21.582;2022-11-04T19:17:00;99373.55;;;8.99;81.52
51530;BME280;37613;51.788;21.582;2022-11-04T19:21:07;99366.89;;;8.95;81.41
51530;BME280;37613;51.788;21.582;2022-11-04T19:25:10;99369.65;;;8.93;81.54
51530;BME280;37613;51.788;21.582;2022-11-04T19:29:16;99372.34;;;8.92;81.29
51530;BME280;37613;51.788;21.582;2022-11-04T19:33:18;99379.77;;;8.90;81.53
51530;BME280;37613;51.788;21.582;2022-11-04T19:37:21;99371.90;;;8.88;81.37
51530;BME280;37613;51.788;21.582;2022-11-04T19:41:24;99361.58;;;8.85;82.16
51530;BME280;37613;51.788;21.582;2022-11-04T19:45:46;99364.66;;;8.84;82.26
51530;BME280;37613;51.788;21.582;2022-11-04T19:49:50;99371.47;;;8.81;82.11
51530;BME280;37613;51.788;21.582;2022-11-04T19:53:53;99375.96;;;8.80;82.45
51530;BME280;37613;51.788;21.582;2022-11-04T19:57:55;99377.61;;;8.78;82.61
51530;BME280;37613;51.788;21.582;2022-11-04T20:01:58;99372.10;;;8.78;82.42
51530;BME280;37613;51.788;21.582;2022-11-04T20:06:01;99370.37;;;8.78;82.74
51530;BME280;37613;51.788;21.582;2022-11-04T20:10:05;99366.68;;;8.77;82.98
51530;BME280;37613;51.788;21.582;2022-11-04T20:14:07;99359.44;;;8.76;82.72
51530;BME280;37613;51.788;21.582;2022-11-04T20:18:09;99356.63;;;8.73;83.05
51530;BME280;37613;51.788;21.582;2022-11-04T20:22:11;99355.61;;;8.70;83.12
51530;BME280;37613;51.788;21.582;2022-11-04T20:26:18;99359.48;;;8.68;83.08
51530;BME280;37613;51.788;21.582;2022-11-04T20:30:20;99367.23;;;8.67;83.26
51530;BME280;37613;51.788;21.582;2022-11-04T20:34:24;99365.90;;;8.65;83.64
51530;BME280;37613;51.788;21.582;2022-11-04T20:38:27;99364.23;;;8.62;83.48
51530;BME280;37613;51.788;21.582;2022-11-04T20:42:29;99365.67;;;8.61;83.24
51530;BME280;37613;51.788;21.582;2022-11-04T20:46:32;99373.86;;;8.59;83.11
51530;BME280;37613;51.788;21.582;2022-11-04T20:50:35;99372.38;;;8.59;83.20
51530;BME280;37613;51.788;21.582;2022-11-04T20:54:38;99374.91;;;8.59;83.50
51530;BME280;37613;51.788;21.582;2022-11-04T20:58:42;99371.30;;;8.58;83.50
51530;BME280;37613;51.788;21.582;2022-11-04T21:02:45;99366.23;;;8.56;83.71
51530;BME280;37613;51.788;21.582;2022-11-04T21:06:48;99370.27;;;8.55;83.52
51530;BME280;37613;51.788;21.582;2022-11-04T21:10:53;99374.85;;;8.53;83.63
51530;BME280;37613;51.788;21.582;2022-11-04T21:14:56;99377.39;;;8.51;83.89
51530;BME280;37613;51.788;21.582;2022-11-04T21:18:58;99382.59;;;8.47;83.72
51530;BME280;37613;51.788;21.582;2022-11-04T21:23:01;99380.01;;;8.45;83.73
51530;BME280;37613;51.788;21.582;2022-11-04T21:27:03;99374.60;;;8.43;83.73
51530;BME280;37613;51.788;21.582;2022-11-04T21:31:08;99378.61;;;8.40;83.94
51530;BME280;37613;51.788;21.582;2022-11-04T21:35:10;99380.98;;;8.37;83.95
51530;BME280;37613;51.788;21.582;2022-11-04T21:39:12;99386.11;;;8.35;83.85
51530;BME280;37613;51.788;21.582;2022-11-04T21:43:15;99368.38;;;8.33;83.89
51530;BME280;37613;51.788;21.582;2022-11-04T21:47:17;99345.32;;;8.30;84.06
51530;BME280;37613;51.788;21.582;2022-11-04T21:51:23;99330.77;;;8.28;84.22
51530;BME280;37613;51.788;21.582;2022-11-04T21:55:25;99325.27;;;8.26;84.20
51530;BME280;37613;51.788;21.582;2022-11-04T21:59:27;99324.24;;;8.24;84.42
51530;BME280;37613;51.788;21.582;2022-11-04T22:03:29;99322.13;;;8.21;84.54
51530;BME280;37613;51.788;21.582;2022-11-04T22:07:32;99335.21;;;8.20;84.86
51530;BME280;37613;51.788;21.582;2022-11-04T22:11:52;99345.92;;;8.17;84.53
51530;BME280;37613;51.788;21.582;2022-11-04T22:15:54;99353.88;;;8.15;84.46
51530;BME280;37613;51.788;21.582;2022-11-04T22:19:59;99358.91;;;8.15;84.57
51530;BME280;37613;51.788;21.582;2022-11-04T22:24:01;99368.60;;;8.15;84.65
51530;BME280;37613;51.788;21.582;2022-11-04T22:28:03;99373.82;;;8.12;84.56
51530;BME280;37613;51.788;21.582;2022-11-04T22:32:05;99378.55;;;8.09;84.71
51530;BME280;37613;51.788;21.582;2022-11-04T22:36:08;99378.39;;;8.06;84.67
51530;BME280;37613;51.788;21.582;2022-11-04T22:40:10;99381.15;;;8.06;84.57
51530;BME280;37613;51.788;21.582;2022-11-04T22:44:12;99374.08;;;8.05;84.92
51530;BME280;37613;51.788;21.582;2022-11-04T22:48:15;99370.61;;;8.04;84.95
51530;BME280;37613;51.788;21.582;2022-11-04T22:52:17;99368.58;;;8.03;85.08
51530;BME280;37613;51.788;21.582;2022-11-04T22:56:20;99371.26;;;8.02;84.93
51530;BME280;37613;51.788;21.582;2022-11-04T23:00:23;99377.30;;;8.01;85.15
51530;BME280;37613;51.788;21.582;2022-11-04T23:04:25;99379.27;;;8.00;85.20
51530;BME280;37613;51.788;21.582;2022-11-04T23:08:28;99383.05;;;8.00;85.20
51530;BME280;37613;51.788;21.582;2022-11-04T23:12:31;99380.08;;;7.99;85.12
51530;BME280;37613;51.788;21.582;2022-11-04T23:16:51;99380.95;;;7.97;85.21
51530;BME280;37613;51.788;21.582;2022-11-04T23:21:15;99383.01;;;7.95;85.15
51530;BME280;37613;51.788;21.582;2022-11-04T23:25:36;99379.68;;;7.93;85.27
51530;BME280;37613;51.788;21.582;2022-11-04T23:29:38;99384.41;;;7.92;85.39
51530;BME280;37613;51.788;21.582;2022-11-04T23:33:58;99380.08;;;7.92;85.50
51530;BME280;37613;51.788;21.582;2022-11-04T23:38:19;99380.86;;;7.93;85.53